sensor_id;sensor_type;location;lat;lon;timestamp;P1;durP1;ratioP1;P2;durP2;ratioP2
39300;SDS011;25019;42.626;23.380;2022-12-29T00:01:31;22.73;;;15.23;;
39300;SDS011;25019;42.626;23.380;2022-12-29T00:03:57;23.80;;;15.27;;
39300;SDS011;25019;42.626;23.380;2022-12-29T00:06:24;25.53;;;15.47;;
39300;SDS011;25019;42.626;23.380;2022-12-29T00:08:49;21.37;;;14.80;;
39300;SDS011;25019;42.626;23.380;2022-12-29T00:11:23;21.33;;;13.03;;
39300;SDS011;25019;42.626;23.380;2022-12-29T00:13:50;28.07;;;14.73;;
39300;SDS011;25019;42.626;23.380;2022-12-29T00:16:35;20.60;;;13.60;;
39300;SDS011;25019;42.626;23.380;2022-12-29T00:19:02;22.53;;;14.43;;
39300;SDS011;25019;42.626;23.380;2022-12-29T00:21:29;25.63;;;14.87;;
39300;SDS011;25019;42.626;23.380;2022-12-29T00:24:20;24.20;;;14.90;;
39300;SDS011;25019;42.626;23.380;2022-12-29T00:27:07;23.97;;;14.40;;
39300;SDS011;25019;42.626;23.380;2022-12-29T00:29:55;21.30;;;13.70;;
39300;SDS011;25019;42.626;23.380;2022-12-29T00:32:39;22.57;;;14.97;;
39300;SDS011;25019;42.626;23.380;2022-12-29T00:35:39;22.53;;;13.93;;
39300;SDS011;25019;42.626;23.380;2022-12-29T00:38:10;22.97;;;14.87;;
39300;SDS011;25019;42.626;23.380;2022-12-29T00:40:56;25.43;;;15.17;;
39300;SDS011;25019;42.626;23.380;2022-12-29T00:43:39;25.50;;;15.10;;
39300;SDS011;25019;42.626;23.380;2022-12-29T00:46:24;24.43;;;15.00;;
39300;SDS011;25019;42.626;23.380;2022-12-29T00:48:49;25.23;;;15.60;;
39300;SDS011;25019;42.626;23.380;2022-12-29T00:51:33;24.73;;;15.43;;
39300;SDS011;25019;42.626;23.380;2022-12-29T00:53:59;24.50;;;14.83;;
39300;SDS011;25019;42.626;23.380;2022-12-29T00:56:25;23.03;;;14.10;;
39300;SDS011;25019;42.626;23.380;2022-12-29T00:58:50;26.63;;;16.47;;
39300;SDS011;25019;42.626;23.380;2022-12-29T01:01:16;25.77;;;15.77;;
39300;SDS011;25019;42.626;23.380;2022-12-29T01:03:42;23.77;;;15.23;;
39300;SDS011;25019;42.626;23.380;2022-12-29T01:06:08;22.93;;;14.77;;
39300;SDS011;25019;42.626;23.380;2022-12-29T01:08:36;25.70;;;16.43;;
39300;SDS011;25019;42.626;23.380;2022-12-29T01:11:03;24.83;;;14.73;;
39300;SDS011;25019;42.626;23.380;2022-12-29T01:13:33;26.23;;;15.03;;
39300;SDS011;25019;42.626;23.380;2022-12-29T01:15:59;23.70;;;14.83;;
39300;SDS011;25019;42.626;23.380;2022-12-29T01:18:25;23.17;;;14.60;;
39300;SDS011;25019;42.626;23.380;2022-12-29T01:20:51;24.10;;;14.47;;
39300;SDS011;25019;42.626;23.380;2022-12-29T01:23:23;24.73;;;15.00;;
39300;SDS011;25019;42.626;23.380;2022-12-29T01:25:48;26.00;;;15.53;;
39300;SDS011;25019;42.626;23.380;2022-12-29T01:28:14;26.57;;;15.40;;
39300;SDS011;25019;42.626;23.380;2022-12-29T01:30:40;24.53;;;15.17;;
39300;SDS011;25019;42.626;23.380;2022-12-29T01:33:05;23.40;;;14.97;;
39300;SDS011;25019;42.626;23.380;2022-12-29T01:35:31;25.73;;;15.93;;
39300;SDS011;25019;42.626;23.380;2022-12-29T01:37:57;23.10;;;14.73;;
39300;SDS011;25019;42.626;23.380;2022-12-29T01:40:23;23.60;;;13.97;;
39300;SDS011;25019;42.626;23.380;2022-12-29T01:42:48;25.47;;;15.00;;
39300;SDS011;25019;42.626;23.380;2022-12-29T01:45:16;26.07;;;16.03;;
39300;SDS011;25019;42.626;23.380;2022-12-29T01:50:14;24.93;;;16.13;;
39300;SDS011;25019;42.626;23.380;2022-12-29T01:52:50;24.80;;;15.30;;
39300;SDS011;25019;42.626;23.380;2022-12-29T01:55:25;24.43;;;15.73;;
39300;SDS011;25019;42.626;23.380;2022-12-29T01:57:52;28.20;;;17.97;;
39300;SDS011;25019;42.626;23.380;2022-12-29T02:00:21;25.73;;;16.67;;
39300;SDS011;25019;42.626;23.380;2022-12-29T02:02:53;25.47;;;16.47;;
39300;SDS011;25019;42.626;23.380;2022-12-29T02:08:11;31.20;;;19.77;;
39300;SDS011;25019;42.626;23.380;2022-12-29T02:10:38;29.13;;;19.67;;
39300;SDS011;25019;42.626;23.380;2022-12-29T02:13:05;33.20;;;21.00;;
39300;SDS011;25019;42.626;23.380;2022-12-29T02:24:21;35.90;;;22.97;;
39300;SDS011;25019;42.626;23.380;2022-12-29T02:35:35;34.37;;;22.87;;
39300;SDS011;25019;42.626;23.380;2022-12-29T02:38:32;36.00;;;22.10;;
39300;SDS011;25019;42.626;23.380;2022-12-29T02:41:13;32.30;;;21.40;;
39300;SDS011;25019;42.626;23.380;2022-12-29T02:46:28;33.23;;;20.33;;
39300;SDS011;25019;42.626;23.380;2022-12-29T02:49:09;27.73;;;17.70;;
39300;SDS011;25019;42.626;23.380;2022-12-29T02:51:50;30.80;;;18.17;;
39300;SDS011;25019;42.626;23.380;2022-12-29T02:54:23;24.67;;;16.60;;
39300;SDS011;25019;42.626;23.380;2022-12-29T02:57:10;22.63;;;15.67;;
39300;SDS011;25019;42.626;23.380;2022-12-29T02:59:39;23.17;;;15.97;;
39300;SDS011;25019;42.626;23.380;2022-12-29T03:07:56;23.27;;;14.20;;
39300;SDS011;25019;42.626;23.380;2022-12-29T03:13:17;20.03;;;12.93;;
39300;SDS011;25019;42.626;23.380;2022-12-29T03:16:24;22.60;;;14.30;;
39300;SDS011;25019;42.626;23.380;2022-12-29T03:19:35;21.07;;;14.07;;
39300;SDS011;25019;42.626;23.380;2022-12-29T03:22:09;25.33;;;15.10;;
39300;SDS011;25019;42.626;23.380;2022-12-29T03:25:05;23.10;;;14.10;;
39300;SDS011;25019;42.626;23.380;2022-12-29T03:27:43;20.60;;;13.87;;
39300;SDS011;25019;42.626;23.380;2022-12-29T03:30:13;24.07;;;15.70;;
39300;SDS011;25019;42.626;23.380;2022-12-29T03:32:49;26.00;;;15.77;;
39300;SDS011;25019;42.626;23.380;2022-12-29T03:35:30;24.97;;;16.67;;
39300;SDS011;25019;42.626;23.380;2022-12-29T03:38:09;26.50;;;18.13;;
39300;SDS011;25019;42.626;23.380;2022-12-29T03:40:41;27.40;;;18.77;;
39300;SDS011;25019;42.626;23.380;2022-12-29T03:43:10;24.13;;;17.37;;
39300;SDS011;25019;42.626;23.380;2022-12-29T03:45:38;25.77;;;17.07;;
39300;SDS011;25019;42.626;23.380;2022-12-29T03:48:03;26.23;;;17.40;;
39300;SDS011;25019;42.626;23.380;2022-12-29T03:50:30;25.00;;;15.90;;
39300;SDS011;25019;42.626;23.380;2022-12-29T03:52:57;25.37;;;16.03;;
39300;SDS011;25019;42.626;23.380;2022-12-29T03:55:24;22.03;;;13.67;;
39300;SDS011;25019;42.626;23.380;2022-12-29T03:57:50;22.17;;;14.63;;
39300;SDS011;25019;42.626;23.380;2022-12-29T04:00:22;27.90;;;17.20;;
39300;SDS011;25019;42.626;23.380;2022-12-29T04:02:49;27.17;;;17.57;;
39300;SDS011;25019;42.626;23.380;2022-12-29T04:05:19;29.07;;;19.03;;
39300;SDS011;25019;42.626;23.380;2022-12-29T04:07:46;28.80;;;18.30;;
39300;SDS011;25019;42.626;23.380;2022-12-29T04:10:13;28.80;;;18.83;;
39300;SDS011;25019;42.626;23.380;2022-12-29T04:12:40;31.17;;;19.33;;
39300;SDS011;25019;42.626;23.380;2022-12-29T04:15:07;29.50;;;19.43;;
39300;SDS011;25019;42.626;23.380;2022-12-29T04:17:33;33.40;;;20.07;;
39300;SDS011;25019;42.626;23.380;2022-12-29T04:19:59;35.03;;;20.10;;
39300;SDS011;25019;42.626;23.380;2022-12-29T04:22:43;31.37;;;18.97;;
39300;SDS011;25019;42.626;23.380;2022-12-29T04:25:09;32.33;;;19.53;;
39300;SDS011;25019;42.626;23.380;2022-12-29T04:27:35;35.73;;;20.73;;
39300;SDS011;25019;42.626;23.380;2022-12-29T04:30:17;32.63;;;20.43;;
39300;SDS011;25019;42.626;23.380;2022-12-29T04:33:18;30.80;;;19.77;;
39300;SDS011;25019;42.626;23.380;2022-12-29T04:35:44;29.47;;;18.83;;
39300;SDS011;25019;42.626;23.380;2022-12-29T04:38:10;31.93;;;19.70;;
39300;SDS011;25019;42.626;23.380;2022-12-29T04:40:40;45.57;;;26.53;;
39300;SDS011;25019;42.626;23.380;2022-12-29T04:43:08;44.23;;;24.97;;
39300;SDS011;25019;42.626;23.380;2022-12-29T04:45:47;38.03;;;22.60;;
39300;SDS011;25019;42.626;23.380;2022-12-29T04:48:27;33.53;;;22.43;;
39300;SDS011;25019;42.626;23.380;2022-12-29T04:51:20;35.13;;;21.00;;
39300;SDS011;25019;42.626;23.380;2022-12-29T04:53:45;33.87;;;20.13;;
39300;SDS011;25019;42.626;23.380;2022-12-29T04:56:11;31.07;;;17.80;;
39300;SDS011;25019;42.626;23.380;2022-12-29T04:58:37;29.10;;;18.77;;
39300;SDS011;25019;42.626;23.380;2022-12-29T05:01:03;31.53;;;18.00;;
39300;SDS011;25019;42.626;23.380;2022-12-29T05:03:29;25.23;;;15.77;;
39300;SDS011;25019;42.626;23.380;2022-12-29T05:05:55;24.63;;;15.60;;
39300;SDS011;25019;42.626;23.380;2022-12-29T05:08:22;26.07;;;16.50;;
39300;SDS011;25019;42.626;23.380;2022-12-29T05:10:51;22.53;;;15.67;;
39300;SDS011;25019;42.626;23.380;2022-12-29T05:13:17;25.07;;;15.67;;
39300;SDS011;25019;42.626;23.380;2022-12-29T05:15:50;21.17;;;14.67;;
39300;SDS011;25019;42.626;23.380;2022-12-29T05:18:16;21.83;;;14.23;;
39300;SDS011;25019;42.626;23.380;2022-12-29T05:20:42;25.70;;;15.23;;
39300;SDS011;25019;42.626;23.380;2022-12-29T05:23:08;24.83;;;16.40;;
39300;SDS011;25019;42.626;23.380;2022-12-29T05:25:34;25.03;;;16.03;;
39300;SDS011;25019;42.626;23.380;2022-12-29T05:28:16;24.67;;;15.33;;
39300;SDS011;25019;42.626;23.380;2022-12-29T05:30:52;27.57;;;16.97;;
39300;SDS011;25019;42.626;23.380;2022-12-29T05:33:18;28.17;;;18.33;;
39300;SDS011;25019;42.626;23.380;2022-12-29T05:35:46;28.73;;;19.40;;
39300;SDS011;25019;42.626;23.380;2022-12-29T05:38:12;28.93;;;18.30;;
39300;SDS011;25019;42.626;23.380;2022-12-29T05:40:38;28.03;;;18.53;;
39300;SDS011;25019;42.626;23.380;2022-12-29T05:43:15;34.13;;;21.73;;
39300;SDS011;25019;42.626;23.380;2022-12-29T05:46:00;29.20;;;18.67;;
39300;SDS011;25019;42.626;23.380;2022-12-29T05:48:38;28.00;;;18.93;;
39300;SDS011;25019;42.626;23.380;2022-12-29T05:51:27;31.73;;;19.77;;
39300;SDS011;25019;42.626;23.380;2022-12-29T05:53:53;31.37;;;18.83;;
39300;SDS011;25019;42.626;23.380;2022-12-29T05:56:19;34.53;;;21.20;;
39300;SDS011;25019;42.626;23.380;2022-12-29T05:58:51;37.37;;;22.47;;
39300;SDS011;25019;42.626;23.380;2022-12-29T06:01:16;35.47;;;22.13;;
39300;SDS011;25019;42.626;23.380;2022-12-29T06:03:43;36.50;;;23.23;;
39300;SDS011;25019;42.626;23.380;2022-12-29T06:06:09;37.40;;;22.80;;
39300;SDS011;25019;42.626;23.380;2022-12-29T06:08:35;36.40;;;23.27;;
39300;SDS011;25019;42.626;23.380;2022-12-29T06:11:02;42.37;;;24.67;;
39300;SDS011;25019;42.626;23.380;2022-12-29T06:13:27;37.10;;;24.70;;
39300;SDS011;25019;42.626;23.380;2022-12-29T06:15:55;37.07;;;24.37;;
39300;SDS011;25019;42.626;23.380;2022-12-29T06:18:21;36.67;;;24.57;;
39300;SDS011;25019;42.626;23.380;2022-12-29T06:20:47;34.27;;;23.30;;
39300;SDS011;25019;42.626;23.380;2022-12-29T06:23:14;31.20;;;20.73;;
39300;SDS011;25019;42.626;23.380;2022-12-29T06:25:41;35.60;;;21.73;;
39300;SDS011;25019;42.626;23.380;2022-12-29T06:28:07;31.93;;;19.60;;
39300;SDS011;25019;42.626;23.380;2022-12-29T06:30:33;35.47;;;21.90;;
39300;SDS011;25019;42.626;23.380;2022-12-29T06:33:00;37.80;;;21.80;;
39300;SDS011;25019;42.626;23.380;2022-12-29T06:35:25;35.47;;;21.87;;
39300;SDS011;25019;42.626;23.380;2022-12-29T06:37:51;32.27;;;19.53;;
39300;SDS011;25019;42.626;23.380;2022-12-29T06:40:17;31.50;;;19.27;;
39300;SDS011;25019;42.626;23.380;2022-12-29T06:43:10;26.77;;;16.97;;
39300;SDS011;25019;42.626;23.380;2022-12-29T06:45:43;29.90;;;18.37;;
39300;SDS011;25019;42.626;23.380;2022-12-29T06:48:09;25.20;;;16.87;;
39300;SDS011;25019;42.626;23.380;2022-12-29T06:50:34;28.93;;;17.33;;
39300;SDS011;25019;42.626;23.380;2022-12-29T06:53:00;24.40;;;15.60;;
39300;SDS011;25019;42.626;23.380;2022-12-29T06:55:26;25.60;;;17.23;;
39300;SDS011;25019;42.626;23.380;2022-12-29T06:57:53;26.37;;;17.07;;
39300;SDS011;25019;42.626;23.380;2022-12-29T07:00:20;28.33;;;17.40;;
39300;SDS011;25019;42.626;23.380;2022-12-29T07:02:46;26.43;;;16.63;;
39300;SDS011;25019;42.626;23.380;2022-12-29T07:05:12;26.27;;;16.70;;
39300;SDS011;25019;42.626;23.380;2022-12-29T07:07:38;24.40;;;16.47;;
39300;SDS011;25019;42.626;23.380;2022-12-29T07:10:04;23.33;;;16.23;;
39300;SDS011;25019;42.626;23.380;2022-12-29T07:12:30;27.87;;;16.90;;
39300;SDS011;25019;42.626;23.380;2022-12-29T07:14:56;23.70;;;15.53;;
39300;SDS011;25019;42.626;23.380;2022-12-29T07:17:21;21.93;;;14.97;;
39300;SDS011;25019;42.626;23.380;2022-12-29T07:19:47;23.50;;;16.20;;
39300;SDS011;25019;42.626;23.380;2022-12-29T07:22:12;27.83;;;15.43;;
39300;SDS011;25019;42.626;23.380;2022-12-29T07:24:38;28.63;;;17.53;;
39300;SDS011;25019;42.626;23.380;2022-12-29T07:27:04;24.93;;;16.67;;
39300;SDS011;25019;42.626;23.380;2022-12-29T07:29:29;28.30;;;19.30;;
39300;SDS011;25019;42.626;23.380;2022-12-29T07:31:55;28.37;;;19.87;;
39300;SDS011;25019;42.626;23.380;2022-12-29T07:34:21;35.13;;;21.33;;
39300;SDS011;25019;42.626;23.380;2022-12-29T07:36:46;32.33;;;20.93;;
39300;SDS011;25019;42.626;23.380;2022-12-29T07:39:12;30.47;;;20.30;;
39300;SDS011;25019;42.626;23.380;2022-12-29T07:41:38;29.53;;;18.23;;
39300;SDS011;25019;42.626;23.380;2022-12-29T07:44:03;29.27;;;19.43;;
39300;SDS011;25019;42.626;23.380;2022-12-29T07:46:34;28.00;;;18.00;;
39300;SDS011;25019;42.626;23.380;2022-12-29T07:48:59;27.57;;;18.30;;
39300;SDS011;25019;42.626;23.380;2022-12-29T07:51:25;28.77;;;18.63;;
39300;SDS011;25019;42.626;23.380;2022-12-29T07:53:51;28.30;;;17.80;;
39300;SDS011;25019;42.626;23.380;2022-12-29T07:56:16;24.53;;;17.40;;
39300;SDS011;25019;42.626;23.380;2022-12-29T07:58:42;28.70;;;17.20;;
39300;SDS011;25019;42.626;23.380;2022-12-29T08:01:08;24.90;;;16.60;;
39300;SDS011;25019;42.626;23.380;2022-12-29T08:03:33;25.70;;;17.23;;
39300;SDS011;25019;42.626;23.380;2022-12-29T08:05:59;26.70;;;17.23;;
39300;SDS011;25019;42.626;23.380;2022-12-29T08:08:24;26.80;;;16.90;;
39300;SDS011;25019;42.626;23.380;2022-12-29T08:10:50;30.20;;;17.90;;
39300;SDS011;25019;42.626;23.380;2022-12-29T08:13:16;26.70;;;16.00;;
39300;SDS011;25019;42.626;23.380;2022-12-29T08:15:41;25.80;;;16.00;;
39300;SDS011;25019;42.626;23.380;2022-12-29T08:18:07;23.70;;;15.90;;
39300;SDS011;25019;42.626;23.380;2022-12-29T08:20:32;24.00;;;15.23;;
39300;SDS011;25019;42.626;23.380;2022-12-29T08:22:58;24.93;;;16.97;;
39300;SDS011;25019;42.626;23.380;2022-12-29T08:25:24;23.83;;;15.93;;
39300;SDS011;25019;42.626;23.380;2022-12-29T08:27:49;25.67;;;16.97;;
39300;SDS011;25019;42.626;23.380;2022-12-29T08:30:15;30.43;;;18.37;;
39300;SDS011;25019;42.626;23.380;2022-12-29T08:32:41;28.73;;;18.47;;
39300;SDS011;25019;42.626;23.380;2022-12-29T08:35:07;31.47;;;18.47;;
39300;SDS011;25019;42.626;23.380;2022-12-29T08:37:33;28.67;;;17.43;;
39300;SDS011;25019;42.626;23.380;2022-12-29T08:39:59;31.60;;;20.03;;
39300;SDS011;25019;42.626;23.380;2022-12-29T08:42:29;29.83;;;19.87;;
39300;SDS011;25019;42.626;23.380;2022-12-29T08:44:56;29.77;;;19.70;;
39300;SDS011;25019;42.626;23.380;2022-12-29T08:47:23;32.30;;;19.43;;
39300;SDS011;25019;42.626;23.380;2022-12-29T08:49:48;31.67;;;21.40;;
39300;SDS011;25019;42.626;23.380;2022-12-29T08:52:14;28.97;;;19.43;;
39300;SDS011;25019;42.626;23.380;2022-12-29T08:54:40;27.77;;;18.23;;
39300;SDS011;25019;42.626;23.380;2022-12-29T08:57:05;24.83;;;16.40;;
39300;SDS011;25019;42.626;23.380;2022-12-29T08:59:37;27.53;;;18.80;;
39300;SDS011;25019;42.626;23.380;2022-12-29T09:02:03;26.53;;;17.10;;
39300;SDS011;25019;42.626;23.380;2022-12-29T09:04:28;25.03;;;17.77;;
39300;SDS011;25019;42.626;23.380;2022-12-29T09:06:54;24.60;;;16.10;;
39300;SDS011;25019;42.626;23.380;2022-12-29T09:09:20;28.60;;;17.03;;
39300;SDS011;25019;42.626;23.380;2022-12-29T09:11:45;27.77;;;18.57;;
39300;SDS011;25019;42.626;23.380;2022-12-29T09:14:11;32.30;;;19.33;;
39300;SDS011;25019;42.626;23.380;2022-12-29T09:16:37;28.23;;;20.20;;
39300;SDS011;25019;42.626;23.380;2022-12-29T09:19:04;37.23;;;22.73;;
39300;SDS011;25019;42.626;23.380;2022-12-29T09:21:30;33.87;;;21.17;;
39300;SDS011;25019;42.626;23.380;2022-12-29T09:23:56;30.43;;;20.23;;
39300;SDS011;25019;42.626;23.380;2022-12-29T09:26:21;35.80;;;24.07;;
39300;SDS011;25019;42.626;23.380;2022-12-29T09:28:47;37.67;;;24.63;;
39300;SDS011;25019;42.626;23.380;2022-12-29T09:31:13;36.87;;;26.07;;
39300;SDS011;25019;42.626;23.380;2022-12-29T09:33:39;38.20;;;25.90;;
39300;SDS011;25019;42.626;23.380;2022-12-29T09:36:05;38.67;;;25.73;;
39300;SDS011;25019;42.626;23.380;2022-12-29T09:38:30;35.53;;;24.67;;
39300;SDS011;25019;42.626;23.380;2022-12-29T09:40:59;35.07;;;25.93;;
39300;SDS011;25019;42.626;23.380;2022-12-29T09:46:18;32.47;;;24.47;;
39300;SDS011;25019;42.626;23.380;2022-12-29T09:49:39;38.70;;;21.77;;
39300;SDS011;25019;42.626;23.380;2022-12-29T09:51:45;33.93;;;21.50;;
39300;SDS011;25019;42.626;23.380;2022-12-29T09:56:42;32.17;;;21.57;;
39300;SDS011;25019;42.626;23.380;2022-12-29T09:59:11;35.87;;;24.13;;
39300;SDS011;25019;42.626;23.380;2022-12-29T10:01:41;38.47;;;24.63;;
39300;SDS011;25019;42.626;23.380;2022-12-29T10:04:11;39.83;;;25.23;;
39300;SDS011;25019;42.626;23.380;2022-12-29T10:07:00;35.43;;;24.23;;
39300;SDS011;25019;42.626;23.380;2022-12-29T10:25:54;36.50;;;24.97;;
39300;SDS011;25019;42.626;23.380;2022-12-29T10:28:34;39.50;;;24.03;;
39300;SDS011;25019;42.626;23.380;2022-12-29T10:31:06;35.47;;;24.50;;
39300;SDS011;25019;42.626;23.380;2022-12-29T10:33:40;42.60;;;24.13;;
39300;SDS011;25019;42.626;23.380;2022-12-29T10:36:17;35.03;;;23.97;;
39300;SDS011;25019;42.626;23.380;2022-12-29T10:38:52;36.43;;;23.97;;
39300;SDS011;25019;42.626;23.380;2022-12-29T10:41:38;40.97;;;25.47;;
39300;SDS011;25019;42.626;23.380;2022-12-29T10:44:10;37.47;;;24.90;;
39300;SDS011;25019;42.626;23.380;2022-12-29T10:46:40;37.20;;;25.43;;
39300;SDS011;25019;42.626;23.380;2022-12-29T10:49:12;40.33;;;23.87;;
39300;SDS011;25019;42.626;23.380;2022-12-29T10:51:42;36.17;;;24.63;;
39300;SDS011;25019;42.626;23.380;2022-12-29T10:56:44;37.80;;;24.07;;
39300;SDS011;25019;42.626;23.380;2022-12-29T10:59:16;37.17;;;24.87;;
39300;SDS011;25019;42.626;23.380;2022-12-29T11:07:08;36.57;;;23.23;;
39300;SDS011;25019;42.626;23.380;2022-12-29T11:09:36;37.00;;;24.27;;
39300;SDS011;25019;42.626;23.380;2022-12-29T11:12:25;33.73;;;24.37;;
39300;SDS011;25019;42.626;23.380;2022-12-29T11:23:01;34.73;;;22.97;;
39300;SDS011;25019;42.626;23.380;2022-12-29T11:25:28;37.50;;;24.70;;
39300;SDS011;25019;42.626;23.380;2022-12-29T11:27:54;38.30;;;26.23;;
39300;SDS011;25019;42.626;23.380;2022-12-29T11:30:26;35.73;;;23.30;;
39300;SDS011;25019;42.626;23.380;2022-12-29T11:32:54;33.00;;;23.87;;
39300;SDS011;25019;42.626;23.380;2022-12-29T11:35:40;37.23;;;24.23;;
39300;SDS011;25019;42.626;23.380;2022-12-29T11:38:25;37.40;;;23.40;;
39300;SDS011;25019;42.626;23.380;2022-12-29T11:40:56;35.23;;;23.60;;
39300;SDS011;25019;42.626;23.380;2022-12-29T11:43:25;37.37;;;24.13;;
39300;SDS011;25019;42.626;23.380;2022-12-29T11:45:56;37.60;;;22.87;;
39300;SDS011;25019;42.626;23.380;2022-12-29T11:48:21;33.77;;;23.87;;
39300;SDS011;25019;42.626;23.380;2022-12-29T11:50:51;33.43;;;22.30;;
39300;SDS011;25019;42.626;23.380;2022-12-29T11:53:23;33.80;;;23.03;;
39300;SDS011;25019;42.626;23.380;2022-12-29T11:55:52;34.07;;;22.83;;
39300;SDS011;25019;42.626;23.380;2022-12-29T11:58:27;33.03;;;23.50;;
39300;SDS011;25019;42.626;23.380;2022-12-29T12:00:54;33.40;;;23.50;;
39300;SDS011;25019;42.626;23.380;2022-12-29T12:03:23;34.97;;;22.47;;
39300;SDS011;25019;42.626;23.380;2022-12-29T12:05:52;33.83;;;21.53;;
39300;SDS011;25019;42.626;23.380;2022-12-29T12:08:31;36.80;;;22.33;;
39300;SDS011;25019;42.626;23.380;2022-12-29T12:11:29;36.30;;;23.70;;
39300;SDS011;25019;42.626;23.380;2022-12-29T12:16:55;34.10;;;21.63;;
39300;SDS011;25019;42.626;23.380;2022-12-29T12:22:27;32.93;;;22.23;;
39300;SDS011;25019;42.626;23.380;2022-12-29T12:27:57;32.57;;;22.53;;
39300;SDS011;25019;42.626;23.380;2022-12-29T12:30:33;32.77;;;23.27;;
39300;SDS011;25019;42.626;23.380;2022-12-29T12:33:11;34.00;;;22.33;;
39300;SDS011;25019;42.626;23.380;2022-12-29T12:35:53;32.20;;;23.07;;
39300;SDS011;25019;42.626;23.380;2022-12-29T12:42:42;31.27;;;22.47;;
39300;SDS011;25019;42.626;23.380;2022-12-29T12:50:18;34.00;;;23.57;;
39300;SDS011;25019;42.626;23.380;2022-12-29T12:58:18;33.80;;;21.73;;
39300;SDS011;25019;42.626;23.380;2022-12-29T13:03:44;34.07;;;21.67;;
39300;SDS011;25019;42.626;23.380;2022-12-29T13:11:44;29.30;;;21.60;;
39300;SDS011;25019;42.626;23.380;2022-12-29T13:17:11;32.30;;;22.23;;
39300;SDS011;25019;42.626;23.380;2022-12-29T13:22:57;31.90;;;21.30;;
39300;SDS011;25019;42.626;23.380;2022-12-29T13:28:28;29.70;;;21.30;;
39300;SDS011;25019;42.626;23.380;2022-12-29T13:37:09;30.90;;;19.90;;
39300;SDS011;25019;42.626;23.380;2022-12-29T13:39:48;35.17;;;20.93;;
39300;SDS011;25019;42.626;23.380;2022-12-29T13:42:18;37.53;;;21.50;;
39300;SDS011;25019;42.626;23.380;2022-12-29T13:44:48;37.53;;;22.27;;
39300;SDS011;25019;42.626;23.380;2022-12-29T13:47:23;31.27;;;20.87;;
39300;SDS011;25019;42.626;23.380;2022-12-29T13:50:01;33.53;;;20.10;;
39300;SDS011;25019;42.626;23.380;2022-12-29T13:55:37;30.63;;;19.67;;
39300;SDS011;25019;42.626;23.380;2022-12-29T13:58:21;27.73;;;18.20;;
39300;SDS011;25019;42.626;23.380;2022-12-29T14:03:47;30.50;;;19.33;;
39300;SDS011;25019;42.626;23.380;2022-12-29T14:08:45;29.97;;;19.13;;
39300;SDS011;25019;42.626;23.380;2022-12-29T14:11:12;30.53;;;19.40;;
39300;SDS011;25019;42.626;23.380;2022-12-29T14:13:42;28.60;;;19.23;;
39300;SDS011;25019;42.626;23.380;2022-12-29T14:16:12;29.90;;;19.43;;
39300;SDS011;25019;42.626;23.380;2022-12-29T14:18:54;29.37;;;20.63;;
39300;SDS011;25019;42.626;23.380;2022-12-29T14:21:23;33.20;;;20.63;;
39300;SDS011;25019;42.626;23.380;2022-12-29T14:23:56;31.87;;;21.47;;
39300;SDS011;25019;42.626;23.380;2022-12-29T14:26:46;30.30;;;19.20;;
39300;SDS011;25019;42.626;23.380;2022-12-29T14:31:49;29.83;;;19.43;;
39300;SDS011;25019;42.626;23.380;2022-12-29T14:34:23;31.40;;;20.10;;
39300;SDS011;25019;42.626;23.380;2022-12-29T14:36:53;30.17;;;20.40;;
39300;SDS011;25019;42.626;23.380;2022-12-29T14:39:27;34.83;;;18.83;;
39300;SDS011;25019;42.626;23.380;2022-12-29T14:44:34;28.60;;;20.07;;
39300;SDS011;25019;42.626;23.380;2022-12-29T14:47:20;37.67;;;23.50;;
39300;SDS011;25019;42.626;23.380;2022-12-29T14:49:50;42.13;;;23.43;;
39300;SDS011;25019;42.626;23.380;2022-12-29T14:52:17;42.50;;;26.53;;
39300;SDS011;25019;42.626;23.380;2022-12-29T14:54:50;43.40;;;27.83;;
39300;SDS011;25019;42.626;23.380;2022-12-29T14:57:20;48.27;;;29.07;;
39300;SDS011;25019;42.626;23.380;2022-12-29T14:59:52;50.77;;;28.53;;
39300;SDS011;25019;42.626;23.380;2022-12-29T15:02:22;48.20;;;27.77;;
39300;SDS011;25019;42.626;23.380;2022-12-29T15:04:51;45.50;;;27.57;;
39300;SDS011;25019;42.626;23.380;2022-12-29T15:07:23;48.43;;;28.93;;
39300;SDS011;25019;42.626;23.380;2022-12-29T15:09:53;43.70;;;26.43;;
39300;SDS011;25019;42.626;23.380;2022-12-29T15:14:55;39.13;;;25.50;;
39300;SDS011;25019;42.626;23.380;2022-12-29T15:17:28;45.20;;;26.00;;
39300;SDS011;25019;42.626;23.380;2022-12-29T15:19:55;39.83;;;25.97;;
39300;SDS011;25019;42.626;23.380;2022-12-29T15:22:22;38.50;;;24.53;;
39300;SDS011;25019;42.626;23.380;2022-12-29T15:24:49;41.03;;;24.47;;
39300;SDS011;25019;42.626;23.380;2022-12-29T15:27:21;38.30;;;23.57;;
39300;SDS011;25019;42.626;23.380;2022-12-29T15:29:55;47.90;;;24.80;;
39300;SDS011;25019;42.626;23.380;2022-12-29T15:32:22;47.33;;;26.23;;
39300;SDS011;25019;42.626;23.380;2022-12-29T15:34:53;38.67;;;26.20;;
39300;SDS011;25019;42.626;23.380;2022-12-29T15:37:24;39.97;;;26.43;;
39300;SDS011;25019;42.626;23.380;2022-12-29T15:39:52;44.33;;;27.33;;
39300;SDS011;25019;42.626;23.380;2022-12-29T15:45:03;40.80;;;25.53;;
39300;SDS011;25019;42.626;23.380;2022-12-29T15:47:30;47.03;;;26.30;;
39300;SDS011;25019;42.626;23.380;2022-12-29T15:50:04;45.23;;;25.87;;
39300;SDS011;25019;42.626;23.380;2022-12-29T15:52:33;43.17;;;27.83;;
39300;SDS011;25019;42.626;23.380;2022-12-29T15:54:59;51.33;;;32.27;;
39300;SDS011;25019;42.626;23.380;2022-12-29T15:57:28;47.20;;;28.60;;
39300;SDS011;25019;42.626;23.380;2022-12-29T15:59:57;50.00;;;29.40;;
39300;SDS011;25019;42.626;23.380;2022-12-29T16:02:25;46.70;;;27.30;;
39300;SDS011;25019;42.626;23.380;2022-12-29T16:04:51;43.87;;;26.53;;
39300;SDS011;25019;42.626;23.380;2022-12-29T16:10:03;46.87;;;26.30;;
39300;SDS011;25019;42.626;23.380;2022-12-29T16:12:33;42.97;;;26.17;;
39300;SDS011;25019;42.626;23.380;2022-12-29T16:15:12;46.83;;;27.90;;
39300;SDS011;25019;42.626;23.380;2022-12-29T16:17:46;48.80;;;27.80;;
39300;SDS011;25019;42.626;23.380;2022-12-29T16:20:17;50.13;;;29.93;;
39300;SDS011;25019;42.626;23.380;2022-12-29T16:22:47;47.73;;;30.47;;
39300;SDS011;25019;42.626;23.380;2022-12-29T16:27:44;62.20;;;33.17;;
39300;SDS011;25019;42.626;23.380;2022-12-29T16:30:17;45.00;;;27.83;;
39300;SDS011;25019;42.626;23.380;2022-12-29T16:32:55;48.40;;;30.13;;
39300;SDS011;25019;42.626;23.380;2022-12-29T16:35:34;49.67;;;30.53;;
39300;SDS011;25019;42.626;23.380;2022-12-29T16:38:15;50.87;;;28.90;;
39300;SDS011;25019;42.626;23.380;2022-12-29T16:40:55;46.67;;;28.40;;
39300;SDS011;25019;42.626;23.380;2022-12-29T16:48:21;44.97;;;26.43;;
39300;SDS011;25019;42.626;23.380;2022-12-29T16:50:51;41.23;;;26.03;;
39300;SDS011;25019;42.626;23.380;2022-12-29T16:53:28;40.93;;;24.30;;
39300;SDS011;25019;42.626;23.380;2022-12-29T16:55:57;40.77;;;24.30;;
39300;SDS011;25019;42.626;23.380;2022-12-29T16:58:28;38.23;;;23.17;;